Watertown Municipal, SD

8:11 AM CDT on March 29, 2015 (GMT -0500)
Watertown Municipal | | Change Station
CLOSE
Current Station
Airport
Location: Watertown,
Elevation: 1749 ft
Nearby Weather Stations
Active Advisory: Wind Advisory

Elev 1749 ft 44.90 °N, 97.15 °W | Updated 18 minutes ago

Overcast
Overcast
43 °F
Feels Like 34 °F
N
24
Wind Variable Wind from WNW
Gusts 33 mph

Today
High -- | Low -- °F
--% Chance of Precip.
Yesterday
High -- | Low -- °F
Precip. -- in
7:15 AM 7:52 PM
Waxing Gibbous, 71% visible
Pressure 29.70 in
Visibility 8.0 miles
Clouds Few 2000 ft
Mostly Cloudy 2400 ft
Overcast 7500 ft
Windchill 34 °F
Dew Point 39 °F
Humidity 86%
Rainfall 0.00 in
Snow Depth Not available.
UV 0 out of 12
Pollen 7.80 out of 12
Air Quality Not available.
Flu Activity Not available.
METAR KATY 291253Z AUTO 29021G29KT 8SM -RA FEW020 BKN024 OVC075 06/04 A2968 RMK AO2 PK WND 29031/1234 RAB45 SLP057 P0000 T00610039

More Conditions Fewer Conditions

Pressure 29.70 in
Visibility 8.0 miles
Clouds Few 2000 ft
Mostly Cloudy 2400 ft
Overcast 7500 ft
Windchill 34 °F
Dew Point 39 °F
Humidity 86%
Rainfall 0.00 in
Snow Depth Not available.
UV 0 out of 12
Pollen 7.80 out of 12
Air Quality Not available.
Flu Activity Not available.
METAR KATY 291253Z AUTO 29021G29KT 8SM -RA FEW020 BKN024 OVC075 06/04 A2968 RMK AO2 PK WND 29031/1234 RAB45 SLP057 P0000 T00610039

More Conditions Fewer Conditions

10-Day Weather Forecast

Almanac

Astronomy

Mar. 29, 2015 Rise Set
Actual Time
Civil Twilight
Nautical Twilight
Astronomical Twilight
Moon
Length of Visible Light
Length of Day
Tomorrow will be .
, % of the Moon is Illuminated

Today's Extremes

State Highs State Lows

Community

WunderPhotos

Upload Photos

1,809,232 photos uploaded!

WunderBlogs® & News

Nearby

Air Quality

  Air Quality AQ Index Pollutant
Not available.

Snow Depth

Station Depth Elevation

Earthquake Activity

City Distance Mag. Time & Date
Minimum magnitude displayed is 2.5.

Coastal Water Temperatures

Place Temperature

Stations

Nearby Weather Stations

Station Location Temp. Windchill Dew Point Humidity Wind Precip. Elev Updated Type
                   
Wind Advisory
Statement as of 3:34 AM CDT on March 29, 2015

... Wind Advisory remains in effect from 7 am this morning to 7 PM
CDT this evening...

* timing... winds will increase this morning and persist through
early evening.

* Winds... northwest 25 to 35 mph with gusts to 45 mph.

* Impacts... due to very strong winds... fire danger will be very
high today.

Precautionary/preparedness actions...

A Wind Advisory means that sustained winds of 30 mph or higher
are expected. Winds this strong can make driving difficult...
especially for high profile vehicles. Use extra caution.